Albany, Minnesota
Current Conditions -  °F | °C
As of 7:32 AM on Monday 22 Dec 2014 (Local Time) from KD39 Reporting Station
Drizzle Drizzle  
Wind Chill: -2°   Ceiling: 300
Heat Index:   Visibility: 3mi
Dew Point:   Wind: 12mph
Humidity: 99%   Direction: 130°SE
Pressure: 29.56"   Gusts: NA
Location:  45.63°N, 94.57°W
Report Text: KD39 221332Z AUTO 13010KT 3SM -DZ OVC003 02/02 A2956 RMK AO2 T00200019
Loading
Personal Weather Stations






























Interactive Weather Map New forecast layout! Learn more

10-Day Weather Forecast

Advertisements
Track Severe Weather on mobile